Time;durP1;ratioP1;P1;durP2;ratioP2;P2;SDS_P1;SDS_P2;PMS_P1;PMS_P2;Temp;Humidity;BMP_temperature;BMP_pressure;BME280_temperature;BME280_humidity;BME280_pressure;Samples;Min_cycle;Max_cycle;Signal;HPM_P1;HPM_P2
2023/12/27 00:00:24;;;;;;;40.45;21.75;;;;;;;;;;5032407;28;20029;-82
2023/12/27 00:02:50;;;;;;;64.75;32.95;;;;;;;;;;5036398;28;20453;-82
2023/12/27 00:05:16;;;;;;;40.75;20.20;;;;;;;;;;5036833;28;20553;-82
2023/12/27 00:07:41;;;;;;;35.58;19.77;;;;;;;;;;5036764;28;20032;-82
2023/12/27 00:10:07;;;;;;;62.78;36.08;;;;;;;;;;5036475;28;20022;-82
2023/12/27 00:12:33;;;;;;;43.88;23.33;;;;;;;;;;5032489;28;20032;-82
2023/12/27 00:15:02;;;;;;;40.72;20.98;;;;;;;;;;5020181;28;20041;-82
2023/12/27 00:17:28;;;;;;;46.35;25.75;;;;;;;;;;5054287;28;20016;-82
2023/12/27 00:19:53;;;;;;;42.30;21.38;;;;;;;;;;5035930;28;20026;-82
2023/12/27 00:22:20;;;;;;;36.10;18.58;;;;;;;;;;5054482;28;20617;-82
2023/12/27 00:24:45;;;;;;;43.88;22.48;;;;;;;;;;5035799;28;20281;-82
2023/12/27 00:27:11;;;;;;;34.88;18.77;;;;;;;;;;5054632;28;20018;-82
2023/12/27 00:29:37;;;;;;;33.88;17.27;;;;;;;;;;5054443;28;20018;-82
2023/12/27 00:32:02;;;;;;;28.38;17.45;;;;;;;;;;5041298;28;20033;-82
2023/12/27 00:34:28;;;;;;;25.17;15.02;;;;;;;;;;5053075;28;20021;-82
2023/12/27 00:36:53;;;;;;;33.50;17.70;;;;;;;;;;5043033;28;20058;-82
2023/12/27 00:39:23;;;;;;;32.33;17.05;;;;;;;;;;5037432;28;20033;-82
2023/12/27 00:41:48;;;;;;;29.77;16.70;;;;;;;;;;5053137;28;20006;-82
2023/12/27 00:44:14;;;;;;;26.98;14.50;;;;;;;;;;5037139;28;20726;-82
2023/12/27 00:46:41;;;;;;;29.63;14.95;;;;;;;;;;5054399;28;20024;-82
2023/12/27 00:49:06;;;;;;;31.38;17.08;;;;;;;;;;5037263;28;20330;-82
2023/12/27 00:51:31;;;;;;;38.45;19.92;;;;;;;;;;5054448;28;20053;-82
2023/12/27 00:53:56;;;;;;;44.95;21.40;;;;;;;;;;5037413;28;20108;-82
2023/12/27 00:56:22;;;;;;;37.20;19.95;;;;;;;;;;5054231;28;20024;-82
2023/12/27 00:58:48;;;;;;;40.63;21.85;;;;;;;;;;5037977;28;20017;-82
2023/12/27 01:01:13;;;;;;;41.88;21.08;;;;;;;;;;5037802;28;20013;-82
2023/12/27 01:03:39;;;;;;;32.47;19.08;;;;;;;;;;5037919;28;20022;-81
2023/12/27 01:06:05;;;;;;;36.58;20.42;;;;;;;;;;5037490;28;20037;-82
2023/12/27 01:08:30;;;;;;;27.50;14.52;;;;;;;;;;5054921;28;20013;-82
2023/12/27 01:10:56;;;;;;;27.13;14.93;;;;;;;;;;5054892;28;20022;-82
2023/12/27 01:13:21;;;;;;;24.80;14.15;;;;;;;;;;5037746;28;20021;-82
2023/12/27 01:15:46;;;;;;;28.17;17.17;;;;;;;;;;5038057;28;20013;-82
2023/12/27 01:18:11;;;;;;;24.73;13.98;;;;;;;;;;5037826;28;20043;-82
2023/12/27 01:20:37;;;;;;;25.77;13.15;;;;;;;;;;5038121;28;20024;-82
2023/12/27 01:23:02;;;;;;;26.40;14.68;;;;;;;;;;5054488;28;20048;-82
2023/12/27 01:25:27;;;;;;;28.65;16.50;;;;;;;;;;5055261;28;20013;-82
2023/12/27 01:27:53;;;;;;;27.05;14.75;;;;;;;;;;5034210;28;20010;-82
2023/12/27 01:30:18;;;;;;;21.63;11.50;;;;;;;;;;5048629;28;20025;-82
2023/12/27 01:32:43;;;;;;;27.98;12.90;;;;;;;;;;5048959;28;20017;-82
2023/12/27 01:35:09;;;;;;;27.73;14.93;;;;;;;;;;5049029;28;20034;-82
2023/12/27 01:37:34;;;;;;;24.38;12.48;;;;;;;;;;5015042;28;20106;-82
2023/12/27 01:39:59;;;;;;;31.13;14.98;;;;;;;;;;5031801;28;20371;-83
2023/12/27 01:42:25;;;;;;;28.08;13.23;;;;;;;;;;5030494;28;20018;-82
2023/12/27 01:44:50;;;;;;;23.25;13.23;;;;;;;;;;5012627;28;20030;-83
2023/12/27 01:47:16;;;;;;;22.80;13.25;;;;;;;;;;5013792;28;20041;-83
2023/12/27 01:49:41;;;;;;;24.25;13.05;;;;;;;;;;5033168;28;20077;-83
2023/12/27 01:52:09;;;;;;;23.52;14.23;;;;;;;;;;5031796;28;20017;-82
2023/12/27 01:54:35;;;;;;;22.55;12.70;;;;;;;;;;5035259;28;20003;-83
2023/12/27 01:57:00;;;;;;;23.77;13.70;;;;;;;;;;5032737;28;20021;-83
2023/12/27 01:59:26;;;;;;;23.20;14.23;;;;;;;;;;5014880;28;20489;-82
2023/12/27 02:01:53;;;;;;;19.90;11.98;;;;;;;;;;5016357;28;20104;-83
2023/12/27 02:04:18;;;;;;;26.23;14.23;;;;;;;;;;5032141;28;20022;-83
2023/12/27 02:06:43;;;;;;;38.10;18.58;;;;;;;;;;5033533;28;20033;-82
2023/12/27 02:09:09;;;;;;;24.92;14.13;;;;;;;;;;5015052;28;20057;-82
2023/12/27 02:11:35;;;;;;;28.17;16.23;;;;;;;;;;5011123;28;20022;-83
2023/12/27 02:14:07;;;;;;;26.65;14.18;;;;;;;;;;5016932;28;20033;-83
2023/12/27 02:16:32;;;;;;;23.42;12.13;;;;;;;;;;5020753;28;20488;-82
2023/12/27 02:19:00;;;;;;;24.70;13.45;;;;;;;;;;5034193;28;20057;-83
2023/12/27 02:21:25;;;;;;;29.73;16.08;;;;;;;;;;5022492;28;20110;-83
2023/12/27 02:23:52;;;;;;;30.48;14.23;;;;;;;;;;5034806;28;20014;-82
2023/12/27 02:26:18;;;;;;;31.02;16.40;;;;;;;;;;5035061;28;20058;-83
2023/12/27 02:28:43;;;;;;;25.90;14.63;;;;;;;;;;5034575;28;20507;-83
2023/12/27 02:31:08;;;;;;;30.00;15.95;;;;;;;;;;5032749;28;20022;-83
2023/12/27 02:33:34;;;;;;;26.23;15.10;;;;;;;;;;5033814;28;20025;-82
2023/12/27 02:35:59;;;;;;;29.55;15.05;;;;;;;;;;5032523;28;20044;-82
2023/12/27 02:38:24;;;;;;;28.20;15.80;;;;;;;;;;5033432;28;20070;-82
2023/12/27 02:40:55;;;;;;;27.00;15.95;;;;;;;;;;5033773;28;20018;-82
2023/12/27 02:43:20;;;;;;;27.10;13.27;;;;;;;;;;5032055;28;20010;-82
2023/12/27 02:45:46;;;;;;;26.73;14.25;;;;;;;;;;5033208;28;20104;-83
2023/12/27 02:48:11;;;;;;;31.98;16.70;;;;;;;;;;5015680;28;20137;-83
2023/12/27 02:50:36;;;;;;;33.13;18.10;;;;;;;;;;5032844;28;20002;-83
2023/12/27 02:53:02;;;;;;;24.65;13.93;;;;;;;;;;5031462;28;20090;-83
2023/12/27 02:55:27;;;;;;;26.17;14.77;;;;;;;;;;5033246;28;20507;-83
2023/12/27 02:57:53;;;;;;;25.98;15.32;;;;;;;;;;5032006;28;20018;-83
2023/12/27 03:00:18;;;;;;;25.52;15.07;;;;;;;;;;5032921;28;20061;-83
2023/12/27 03:02:43;;;;;;;26.48;14.48;;;;;;;;;;4998530;28;20026;-83
2023/12/27 03:05:09;;;;;;;31.58;15.00;;;;;;;;;;5032546;28;20036;-83
2023/12/27 03:07:34;;;;;;;27.13;14.40;;;;;;;;;;5032262;28;20120;-82
2023/12/27 03:09:59;;;;;;;24.40;14.25;;;;;;;;;;5032821;28;20064;-83
2023/12/27 03:12:25;;;;;;;25.17;14.48;;;;;;;;;;5031292;28;20045;-82
2023/12/27 03:14:50;;;;;;;25.67;14.32;;;;;;;;;;5033597;28;20010;-83
2023/12/27 03:17:16;;;;;;;29.05;16.25;;;;;;;;;;5033324;28;20010;-83
2023/12/27 03:19:41;;;;;;;26.63;13.75;;;;;;;;;;5033203;28;20029;-83
2023/12/27 03:22:07;;;;;;;30.25;16.02;;;;;;;;;;5014436;28;20415;-82
2023/12/27 03:24:33;;;;;;;34.28;18.45;;;;;;;;;;5032762;28;20026;-82
2023/12/27 03:26:58;;;;;;;31.83;18.52;;;;;;;;;;5014019;28;20026;-82
2023/12/27 03:29:24;;;;;;;25.60;15.05;;;;;;;;;;5032525;28;20026;-82
2023/12/27 03:31:49;;;;;;;33.75;16.98;;;;;;;;;;5014644;28;20036;-82
2023/12/27 03:34:14;;;;;;;33.53;17.83;;;;;;;;;;5030421;28;20006;-82
2023/12/27 03:36:40;;;;;;;29.77;16.67;;;;;;;;;;5022432;28;20053;-82
2023/12/27 03:39:05;;;;;;;31.15;17.00;;;;;;;;;;5032826;28;20085;-82
2023/12/27 03:41:30;;;;;;;31.52;17.08;;;;;;;;;;5051891;28;20028;-83
2023/12/27 03:43:58;;;;;;;31.55;15.13;;;;;;;;;;5032996;28;20100;-82
2023/12/27 03:46:24;;;;;;;25.60;14.60;;;;;;;;;;5052111;28;20018;-83
2023/12/27 03:48:49;;;;;;;24.10;13.90;;;;;;;;;;5017410;28;20021;-83
2023/12/27 03:51:15;;;;;;;22.30;13.00;;;;;;;;;;5032850;28;20029;-83
2023/12/27 03:53:40;;;;;;;17.90;11.23;;;;;;;;;;5031688;28;20026;-83
2023/12/27 03:56:12;;;;;;;27.00;14.38;;;;;;;;;;5014301;28;20482;-83
2023/12/27 03:58:41;;;;;;;24.42;14.15;;;;;;;;;;5029693;28;20022;-82
2023/12/27 04:01:06;;;;;;;24.67;13.82;;;;;;;;;;5032679;28;20041;-83
2023/12/27 04:03:32;;;;;;;27.95;14.90;;;;;;;;;;5013937;28;20030;-83
2023/12/27 04:05:57;;;;;;;22.15;13.73;;;;;;;;;;5024861;28;20029;-82
2023/12/27 04:08:22;;;;;;;27.48;15.32;;;;;;;;;;5044171;28;20033;-82
2023/12/27 04:10:48;;;;;;;30.20;14.80;;;;;;;;;;5030661;28;20014;-83
2023/12/27 04:13:13;;;;;;;27.27;14.50;;;;;;;;;;5014087;28;20009;-83
2023/12/27 04:15:39;;;;;;;29.10;16.45;;;;;;;;;;5014193;28;20022;-82
2023/12/27 04:18:07;;;;;;;41.13;23.23;;;;;;;;;;5013331;28;20021;-82
2023/12/27 04:20:32;;;;;;;27.67;15.20;;;;;;;;;;5017858;28;20431;-83
2023/12/27 04:22:57;;;;;;;33.22;20.80;;;;;;;;;;5051588;28;20012;-83
2023/12/27 04:25:23;;;;;;;42.22;24.90;;;;;;;;;;5032925;28;20048;-82
2023/12/27 04:27:48;;;;;;;38.38;23.08;;;;;;;;;;5052004;28;20014;-82
2023/12/27 04:30:13;;;;;;;29.58;16.77;;;;;;;;;;5051589;28;20012;-82
2023/12/27 04:32:40;;;;;;;35.10;20.02;;;;;;;;;;5050302;28;20032;-82
2023/12/27 04:35:05;;;;;;;38.33;22.45;;;;;;;;;;5051566;28;20022;-82
2023/12/27 04:37:31;;;;;;;30.23;16.58;;;;;;;;;;5043068;28;20048;-82
2023/12/27 04:39:56;;;;;;;28.85;16.77;;;;;;;;;;5032587;28;20022;-82
2023/12/27 04:42:22;;;;;;;30.10;15.60;;;;;;;;;;5049012;28;20021;-82
2023/12/27 04:44:47;;;;;;;34.38;19.73;;;;;;;;;;5033312;28;20487;-83
2023/12/27 04:47:13;;;;;;;41.20;22.77;;;;;;;;;;5044800;28;20053;-82
2023/12/27 04:49:38;;;;;;;45.15;24.40;;;;;;;;;;5046769;28;20033;-82
2023/12/27 04:52:04;;;;;;;41.72;23.10;;;;;;;;;;5030198;28;20509;-83
2023/12/27 04:54:29;;;;;;;41.65;22.40;;;;;;;;;;5032192;28;20022;-82
2023/12/27 04:56:55;;;;;;;35.65;21.27;;;;;;;;;;4991561;28;20041;-83
2023/12/27 04:59:20;;;;;;;30.75;19.15;;;;;;;;;;5035755;28;20517;-83
2023/12/27 05:01:46;;;;;;;40.70;21.23;;;;;;;;;;5046929;28;20056;-82
2023/12/27 05:04:11;;;;;;;47.67;27.35;;;;;;;;;;5012281;28;20407;-82
2023/12/27 05:06:36;;;;;;;44.50;25.48;;;;;;;;;;5027073;28;20087;-82
2023/12/27 05:09:04;;;;;;;49.75;27.30;;;;;;;;;;5010465;28;20018;-82
2023/12/27 05:11:29;;;;;;;37.85;20.50;;;;;;;;;;5010846;28;20113;-82
2023/12/27 05:13:55;;;;;;;34.00;18.35;;;;;;;;;;5041736;28;20024;-83
2023/12/27 05:16:20;;;;;;;27.90;15.95;;;;;;;;;;5045761;28;20028;-83
2023/12/27 05:18:45;;;;;;;26.55;15.95;;;;;;;;;;5049458;28;20020;-83
2023/12/27 05:21:13;;;;;;;25.08;14.73;;;;;;;;;;5031218;28;20121;-83
2023/12/27 05:23:38;;;;;;;43.28;23.38;;;;;;;;;;5044588;28;20048;-82
2023/12/27 05:26:04;;;;;;;34.33;20.85;;;;;;;;;;5049710;28;20097;-83
2023/12/27 05:28:29;;;;;;;30.92;18.02;;;;;;;;;;5050051;28;20079;-83
2023/12/27 05:30:55;;;;;;;33.40;17.55;;;;;;;;;;5016051;28;20026;-83
2023/12/27 05:33:20;;;;;;;34.28;18.70;;;;;;;;;;5050999;28;20009;-83
2023/12/27 05:35:46;;;;;;;29.40;17.10;;;;;;;;;;5032047;28;20034;-83
2023/12/27 05:38:11;;;;;;;34.25;16.13;;;;;;;;;;5033056;28;20022;-83
2023/12/27 05:40:36;;;;;;;32.45;17.83;;;;;;;;;;5050896;28;20018;-82
2023/12/27 05:43:04;;;;;;;41.38;18.25;;;;;;;;;;5032488;28;20017;-82
2023/12/27 05:45:29;;;;;;;37.40;19.58;;;;;;;;;;5033197;28;20023;-82
2023/12/27 05:47:54;;;;;;;45.38;25.55;;;;;;;;;;5032739;28;20387;-82
2023/12/27 05:50:20;;;;;;;37.38;23.40;;;;;;;;;;5051219;28;20017;-82
2023/12/27 05:52:45;;;;;;;34.30;21.17;;;;;;;;;;5033521;28;20024;-83
2023/12/27 05:55:11;;;;;;;31.73;18.77;;;;;;;;;;5051056;28;20025;-82
2023/12/27 05:57:36;;;;;;;51.17;31.20;;;;;;;;;;5050739;28;20001;-82
2023/12/27 06:00:02;;;;;;;36.67;22.25;;;;;;;;;;5032923;28;20089;-82
2023/12/27 06:02:27;;;;;;;39.38;22.58;;;;;;;;;;5050747;28;20044;-82
2023/12/27 06:04:55;;;;;;;36.85;18.85;;;;;;;;;;5031709;28;20013;-82
2023/12/27 06:07:20;;;;;;;27.13;15.00;;;;;;;;;;5051059;28;20021;-82
2023/12/27 06:09:46;;;;;;;31.05;19.27;;;;;;;;;;5050904;28;20077;-82
2023/12/27 06:12:11;;;;;;;37.38;18.85;;;;;;;;;;5050803;28;20026;-82
2023/12/27 06:14:42;;;;;;;26.38;15.90;;;;;;;;;;5033621;28;20121;-82
2023/12/27 06:17:08;;;;;;;22.55;13.40;;;;;;;;;;5035120;28;20014;-82
2023/12/27 06:19:35;;;;;;;28.23;15.32;;;;;;;;;;5033239;28;20013;-82
2023/12/27 06:22:00;;;;;;;35.15;20.08;;;;;;;;;;5032846;28;20021;-82
2023/12/27 06:24:26;;;;;;;28.42;17.33;;;;;;;;;;5050375;28;20059;-82
2023/12/27 06:26:51;;;;;;;24.55;15.75;;;;;;;;;;5039316;28;20021;-82
2023/12/27 06:29:16;;;;;;;29.77;18.15;;;;;;;;;;5050432;28;20116;-83
2023/12/27 06:31:42;;;;;;;31.55;21.92;;;;;;;;;;5050366;28;20316;-82
2023/12/27 06:34:07;;;;;;;52.08;32.20;;;;;;;;;;5033421;28;20081;-83
2023/12/27 06:36:32;;;;;;;34.30;22.48;;;;;;;;;;5051266;28;20181;-81
2023/12/27 06:38:58;;;;;;;36.45;20.75;;;;;;;;;;5046992;28;20017;-82
2023/12/27 06:41:23;;;;;;;44.88;24.50;;;;;;;;;;5043294;28;20017;-82
2023/12/27 06:43:48;;;;;;;51.53;26.30;;;;;;;;;;5027134;28;20032;-82
2023/12/27 06:46:14;;;;;;;67.43;31.95;;;;;;;;;;5035600;28;20021;-82
2023/12/27 06:48:39;;;;;;;49.10;28.33;;;;;;;;;;5054451;28;20026;-82
2023/12/27 06:51:06;;;;;;;45.65;25.90;;;;;;;;;;5054111;28;20002;-82
2023/12/27 06:53:33;;;;;;;41.78;23.58;;;;;;;;;;5053817;28;20021;-82
2023/12/27 06:56:01;;;;;;;41.35;25.77;;;;;;;;;;5036111;28;20018;-81
2023/12/27 06:58:27;;;;;;;57.43;34.87;;;;;;;;;;4987573;28;20623;-81
2023/12/27 07:00:52;;;;;;;66.25;39.33;;;;;;;;;;4976462;28;20018;-82
2023/12/27 07:03:18;;;;;;;52.13;30.75;;;;;;;;;;4993396;28;20209;-82
2023/12/27 07:05:44;;;;;;;51.05;34.45;;;;;;;;;;4977251;28;20006;-82
2023/12/27 07:08:10;;;;;;;88.20;46.20;;;;;;;;;;4991156;28;20061;-81
2023/12/27 07:10:35;;;;;;;42.42;22.70;;;;;;;;;;4989783;28;20003;-82
2023/12/27 07:13:01;;;;;;;47.83;28.77;;;;;;;;;;4955136;28;20042;-82
2023/12/27 07:15:26;;;;;;;78.22;41.20;;;;;;;;;;4991420;28;20054;-83
2023/12/27 07:17:52;;;;;;;52.72;31.63;;;;;;;;;;4991061;28;20722;-82
2023/12/27 07:20:17;;;;;;;64.97;35.08;;;;;;;;;;4993784;28;20025;-82
2023/12/27 07:22:43;;;;;;;60.80;36.65;;;;;;;;;;4969905;29;20011;-82
2023/12/27 07:25:08;;;;;;;80.40;48.28;;;;;;;;;;4954759;29;20031;-82
2023/12/27 07:27:34;;;;;;;77.45;45.28;;;;;;;;;;4967420;28;20178;-82
2023/12/27 07:29:59;;;;;;;64.35;36.58;;;;;;;;;;5032433;28;20025;-82
2023/12/27 07:32:24;;;;;;;58.08;34.42;;;;;;;;;;5045895;28;20049;-82
2023/12/27 07:34:51;;;;;;;57.90;34.92;;;;;;;;;;5008781;28;20036;-82
2023/12/27 07:37:17;;;;;;;53.65;30.27;;;;;;;;;;5042643;28;20056;-82
2023/12/27 07:39:42;;;;;;;87.47;54.30;;;;;;;;;;5050128;28;20021;-82
2023/12/27 07:42:07;;;;;;;42.67;24.92;;;;;;;;;;5053162;28;20028;-82
2023/12/27 07:44:34;;;;;;;41.00;22.02;;;;;;;;;;5037503;28;20048;-82
2023/12/27 07:46:59;;;;;;;41.97;25.90;;;;;;;;;;5055350;28;20337;-82
2023/12/27 07:49:25;;;;;;;33.92;21.77;;;;;;;;;;5021308;28;20016;-82
2023/12/27 07:51:50;;;;;;;36.33;23.50;;;;;;;;;;5036970;28;20040;-82
2023/12/27 07:54:16;;;;;;;34.45;22.70;;;;;;;;;;5055326;28;20018;-82
2023/12/27 07:56:41;;;;;;;39.08;23.10;;;;;;;;;;5055291;28;20016;-82
2023/12/27 07:59:07;;;;;;;42.90;24.25;;;;;;;;;;5055002;28;20081;-82
2023/12/27 08:01:33;;;;;;;39.83;22.88;;;;;;;;;;5055542;28;20002;-82
2023/12/27 08:04:00;;;;;;;43.80;28.02;;;;;;;;;;5037553;28;20013;-82
2023/12/27 08:06:26;;;;;;;43.40;27.02;;;;;;;;;;5037535;28;20013;-82
2023/12/27 08:08:52;;;;;;;50.08;32.00;;;;;;;;;;5055239;28;20024;-82
2023/12/27 08:11:17;;;;;;;36.90;22.65;;;;;;;;;;5055067;28;20049;-82
2023/12/27 08:13:43;;;;;;;52.97;30.30;;;;;;;;;;5055187;28;20024;-82
2023/12/27 08:16:08;;;;;;;40.13;24.25;;;;;;;;;;5054507;28;20083;-82
2023/12/27 08:18:33;;;;;;;38.20;24.40;;;;;;;;;;5029649;28;20035;-82
2023/12/27 08:20:59;;;;;;;49.50;29.70;;;;;;;;;;5046861;28;20025;-82
2023/12/27 08:23:24;;;;;;;50.03;32.72;;;;;;;;;;5049340;28;20044;-83
2023/12/27 08:25:49;;;;;;;52.42;31.83;;;;;;;;;;5042805;28;20081;-83
2023/12/27 08:28:15;;;;;;;53.92;32.22;;;;;;;;;;5054609;28;20029;-83
2023/12/27 08:30:40;;;;;;;45.55;27.52;;;;;;;;;;5041646;28;20021;-83
2023/12/27 08:33:06;;;;;;;41.30;27.13;;;;;;;;;;5038011;28;20036;-83
2023/12/27 08:35:34;;;;;;;44.63;30.02;;;;;;;;;;5038316;28;20013;-83
2023/12/27 08:38:00;;;;;;;43.22;27.05;;;;;;;;;;5035432;28;20047;-83
2023/12/27 08:40:25;;;;;;;37.15;22.75;;;;;;;;;;5018454;28;20032;-82
2023/12/27 08:42:50;;;;;;;39.67;22.98;;;;;;;;;;5035096;28;20081;-81
2023/12/27 08:45:16;;;;;;;60.78;32.22;;;;;;;;;;5035768;28;20061;-82
2023/12/27 08:47:43;;;;;;;44.17;28.02;;;;;;;;;;5035508;28;20013;-82
2023/12/27 08:50:08;;;;;;;53.85;37.80;;;;;;;;;;5035014;28;20033;-81
2023/12/27 08:52:33;;;;;;;78.93;57.88;;;;;;;;;;5035168;28;20037;-81
2023/12/27 08:54:59;;;;;;;71.10;48.42;;;;;;;;;;5035313;28;20048;-82
2023/12/27 08:57:27;;;;;;;48.28;33.85;;;;;;;;;;5027474;28;20041;-82
2023/12/27 08:59:52;;;;;;;36.47;25.27;;;;;;;;;;5030009;28;20079;-84
2023/12/27 09:02:17;;;;;;;42.85;31.17;;;;;;;;;;5014716;28;20061;-84
2023/12/27 09:04:42;;;;;;;94.40;64.75;;;;;;;;;;5011207;28;20038;-84
2023/12/27 09:07:08;;;;;;;76.00;50.97;;;;;;;;;;5014950;28;20021;-84
2023/12/27 09:09:33;;;;;;;82.10;56.55;;;;;;;;;;5025061;28;20037;-84
2023/12/27 09:11:59;;;;;;;113.57;82.03;;;;;;;;;;5002026;28;20030;-84
2023/12/27 09:14:39;;;;;;;139.95;88.88;;;;;;;;;;5020327;28;20021;-82
2023/12/27 09:17:05;;;;;;;127.85;71.35;;;;;;;;;;5019353;28;20022;-84
2023/12/27 09:19:30;;;;;;;299.98;164.20;;;;;;;;;;4999802;28;20018;-84
2023/12/27 09:21:56;;;;;;;459.17;215.02;;;;;;;;;;5017349;28;20057;-84
2023/12/27 09:24:21;;;;;;;190.43;104.07;;;;;;;;;;5008514;28;20030;-84
2023/12/27 09:26:47;;;;;;;66.70;41.35;;;;;;;;;;4998307;28;20034;-83
2023/12/27 09:29:14;;;;;;;111.85;66.22;;;;;;;;;;5000609;28;20018;-84
2023/12/27 09:31:40;;;;;;;183.65;106.40;;;;;;;;;;5003593;28;20021;-83
2023/12/27 09:34:06;;;;;;;154.85;102.97;;;;;;;;;;4984215;28;20069;-84
2023/12/27 09:36:32;;;;;;;142.50;88.13;;;;;;;;;;4993140;28;20038;-84
2023/12/27 09:38:58;;;;;;;108.88;74.18;;;;;;;;;;5010464;28;20007;-84
2023/12/27 09:41:23;;;;;;;49.60;33.28;;;;;;;;;;5013298;28;20050;-83
2023/12/27 09:43:57;;;;;;;151.02;106.53;;;;;;;;;;4994067;28;20022;-84
2023/12/27 09:46:25;;;;;;;92.25;69.05;;;;;;;;;;4994093;28;20037;-84
2023/12/27 09:48:51;;;;;;;54.75;39.65;;;;;;;;;;5030337;28;20033;-84
2023/12/27 09:51:23;;;;;;;69.68;50.03;;;;;;;;;;5029045;28;20030;-85
2023/12/27 09:53:48;;;;;;;120.72;86.63;;;;;;;;;;5010482;28;20045;-84
2023/12/27 09:56:15;;;;;;;67.63;49.65;;;;;;;;;;5025855;28;20022;-83
2023/12/27 09:58:40;;;;;;;46.97;33.53;;;;;;;;;;5024942;28;20025;-83
2023/12/27 10:01:06;;;;;;;53.83;42.17;;;;;;;;;;5021071;28;20022;-83
2023/12/27 10:03:33;;;;;;;30.58;21.75;;;;;;;;;;5022972;28;20038;-82
2023/12/27 10:06:05;;;;;;;24.17;15.77;;;;;;;;;;4989792;28;20045;-83
2023/12/27 10:08:31;;;;;;;19.90;16.55;;;;;;;;;;5008463;28;20072;-82
2023/12/27 10:10:56;;;;;;;24.55;15.48;;;;;;;;;;5027202;28;20206;-82
2023/12/27 10:13:22;;;;;;;21.30;13.38;;;;;;;;;;5008133;28;20065;-82
2023/12/27 10:15:47;;;;;;;26.70;16.63;;;;;;;;;;5010351;28;20014;-82
2023/12/27 10:18:12;;;;;;;27.98;14.13;;;;;;;;;;5009973;28;20022;-82
2023/12/27 10:20:38;;;;;;;23.55;16.70;;;;;;;;;;5016651;28;20561;-82
2023/12/27 10:23:04;;;;;;;19.30;12.48;;;;;;;;;;5028881;28;20502;-83
2023/12/27 10:25:29;;;;;;;165.13;120.80;;;;;;;;;;5014136;28;20292;-82
2023/12/27 10:27:55;;;;;;;101.25;53.97;;;;;;;;;;5034637;28;20017;-82
2023/12/27 10:30:21;;;;;;;85.55;63.22;;;;;;;;;;5035198;28;20064;-82
2023/12/27 10:32:59;;;;;;;15.30;8.50;;;;;;;;;;5016395;28;20056;-82
2023/12/27 10:35:25;;;;;;;27.52;19.88;;;;;;;;;;5017452;28;20013;-82
2023/12/27 10:38:05;;;;;;;44.95;34.10;;;;;;;;;;5053735;28;20061;-82
2023/12/27 10:40:31;;;;;;;15.82;10.75;;;;;;;;;;5034573;28;20017;-82
2023/12/27 10:42:57;;;;;;;14.68;8.52;;;;;;;;;;5035850;28;20052;-82
2023/12/27 10:45:24;;;;;;;12.68;8.40;;;;;;;;;;5050006;28;20045;-82
2023/12/27 10:47:51;;;;;;;15.65;9.73;;;;;;;;;;5049449;28;20021;-82
2023/12/27 10:50:19;;;;;;;24.67;19.20;;;;;;;;;;5044254;28;20033;-82
2023/12/27 10:52:44;;;;;;;14.40;12.25;;;;;;;;;;5025337;28;20029;-82
2023/12/27 10:55:13;;;;;;;25.20;20.70;;;;;;;;;;5022378;28;20032;-82
2023/12/27 10:57:39;;;;;;;11.57;8.88;;;;;;;;;;5022273;28;20113;-82
2023/12/27 11:00:08;;;;;;;12.50;9.52;;;;;;;;;;5039702;28;20025;-82
2023/12/27 11:02:36;;;;;;;15.63;8.88;;;;;;;;;;5022882;28;20029;-82
2023/12/27 11:05:01;;;;;;;18.38;9.82;;;;;;;;;;5041606;28;20028;-83
2023/12/27 11:07:28;;;;;;;22.30;15.48;;;;;;;;;;5024122;28;20021;-83
2023/12/27 11:09:54;;;;;;;14.07;9.52;;;;;;;;;;5045380;28;20013;-83
2023/12/27 11:12:21;;;;;;;14.98;9.80;;;;;;;;;;5026362;28;20025;-82
2023/12/27 11:14:47;;;;;;;66.55;47.40;;;;;;;;;;5051824;28;20013;-83
2023/12/27 11:17:39;;;;;;;60.90;38.60;;;;;;;;;;5033665;28;20063;-82
2023/12/27 11:20:05;;;;;;;19.08;12.57;;;;;;;;;;5034145;28;20018;-82
2023/12/27 11:22:31;;;;;;;21.92;14.30;;;;;;;;;;5040545;28;20044;-82
2023/12/27 11:24:56;;;;;;;89.07;51.55;;;;;;;;;;5034770;28;20033;-82
2023/12/27 11:27:22;;;;;;;20.20;14.23;;;;;;;;;;5033255;28;20141;-82
2023/12/27 11:29:47;;;;;;;13.25;7.57;;;;;;;;;;5052073;28;20387;-82
2023/12/27 11:32:14;;;;;;;14.40;10.98;;;;;;;;;;5053572;28;20343;-83
2023/12/27 11:34:40;;;;;;;16.58;11.45;;;;;;;;;;5032738;28;20450;-83
2023/12/27 11:37:05;;;;;;;15.57;10.18;;;;;;;;;;5035699;28;20041;-82
2023/12/27 11:39:39;;;;;;;22.80;13.30;;;;;;;;;;5041537;28;20044;-81
2023/12/27 11:42:04;;;;;;;19.52;11.98;;;;;;;;;;5038948;28;20100;-82
2023/12/27 11:44:46;;;;;;;13.63;9.80;;;;;;;;;;5046401;28;20022;-82
2023/12/27 11:47:13;;;;;;;16.75;12.10;;;;;;;;;;5058083;28;20089;-82
2023/12/27 11:49:38;;;;;;;11.43;7.78;;;;;;;;;;5022905;28;20032;-82
2023/12/27 11:52:04;;;;;;;12.10;6.90;;;;;;;;;;5024421;28;20067;-82
2023/12/27 11:54:29;;;;;;;10.90;6.97;;;;;;;;;;5044295;28;20044;-82
2023/12/27 11:56:55;;;;;;;13.38;10.05;;;;;;;;;;5042522;28;20097;-82
2023/12/27 11:59:22;;;;;;;11.35;6.82;;;;;;;;;;5036277;28;20036;-82
2023/12/27 12:01:47;;;;;;;10.75;7.32;;;;;;;;;;5027732;28;20048;-82
2023/12/27 12:04:31;;;;;;;10.93;6.47;;;;;;;;;;5046922;28;20404;-82
2023/12/27 12:07:05;;;;;;;14.60;9.38;;;;;;;;;;5043150;28;20082;-81
2023/12/27 12:09:35;;;;;;;25.35;12.52;;;;;;;;;;5029077;28;20030;-82
2023/12/27 12:12:15;;;;;;;9.73;6.75;;;;;;;;;;5030598;28;20029;-82
2023/12/27 12:14:40;;;;;;;13.32;7.50;;;;;;;;;;5045576;28;20025;-82
2023/12/27 12:17:07;;;;;;;26.70;14.38;;;;;;;;;;5044251;28;20013;-83
2023/12/27 12:19:33;;;;;;;14.93;7.95;;;;;;;;;;5043796;28;20124;-83
2023/12/27 12:21:58;;;;;;;37.17;14.45;;;;;;;;;;5046011;28;20012;-83
2023/12/27 12:24:23;;;;;;;24.75;10.30;;;;;;;;;;5031915;28;20025;-83
2023/12/27 12:26:49;;;;;;;16.58;7.68;;;;;;;;;;5030176;28;20063;-83
2023/12/27 12:29:14;;;;;;;20.50;9.90;;;;;;;;;;5029052;28;20029;-82
2023/12/27 12:31:40;;;;;;;35.30;14.63;;;;;;;;;;5044172;28;20025;-83
2023/12/27 12:34:05;;;;;;;12.82;7.07;;;;;;;;;;5045966;28;20017;-83
2023/12/27 12:36:30;;;;;;;14.60;9.15;;;;;;;;;;5031972;28;20132;-82
2023/12/27 12:38:58;;;;;;;15.02;9.77;;;;;;;;;;5001241;28;20025;-82
2023/12/27 12:41:23;;;;;;;10.63;7.38;;;;;;;;;;5023083;28;20049;-82
2023/12/27 12:43:50;;;;;;;23.48;11.43;;;;;;;;;;5025091;28;20021;-82
2023/12/27 12:46:15;;;;;;;50.45;22.77;;;;;;;;;;5024294;28;20545;-83
2023/12/27 12:48:42;;;;;;;59.47;22.83;;;;;;;;;;5001509;28;20097;-83
2023/12/27 12:51:10;;;;;;;28.80;14.80;;;;;;;;;;5018176;28;20080;-84
2023/12/27 12:53:35;;;;;;;25.42;12.82;;;;;;;;;;5022315;28;20101;-84
2023/12/27 12:56:01;;;;;;;35.60;16.23;;;;;;;;;;5020104;28;20018;-83
2023/12/27 12:58:26;;;;;;;25.42;11.77;;;;;;;;;;5029925;28;20357;-84
2023/12/27 13:00:52;;;;;;;21.90;9.80;;;;;;;;;;5026612;28;20010;-83
2023/12/27 13:03:17;;;;;;;13.77;6.97;;;;;;;;;;5029579;28;20021;-83
2023/12/27 13:05:42;;;;;;;22.80;10.52;;;;;;;;;;5007362;28;20057;-83
2023/12/27 13:08:07;;;;;;;24.45;11.68;;;;;;;;;;5022773;28;20029;-83
2023/12/27 13:10:34;;;;;;;20.45;10.55;;;;;;;;;;5023123;28;20381;-83
2023/12/27 13:13:00;;;;;;;10.25;6.70;;;;;;;;;;5009981;28;20246;-84
2023/12/27 13:15:25;;;;;;;9.57;6.45;;;;;;;;;;5008021;28;20507;-84
2023/12/27 13:17:51;;;;;;;9.00;5.93;;;;;;;;;;5009658;28;20014;-83
2023/12/27 13:20:16;;;;;;;9.32;6.10;;;;;;;;;;5010588;28;20025;-83
2023/12/27 13:22:42;;;;;;;12.10;7.38;;;;;;;;;;5012338;28;20104;-83
2023/12/27 13:25:09;;;;;;;11.25;6.85;;;;;;;;;;5010859;28;20034;-85
2023/12/27 13:27:35;;;;;;;9.97;6.23;;;;;;;;;;5012309;28;20022;-83
2023/12/27 13:30:01;;;;;;;37.22;16.55;;;;;;;;;;4995395;28;20116;-83
2023/12/27 13:32:28;;;;;;;17.98;9.13;;;;;;;;;;5002315;28;20030;-83
2023/12/27 13:34:53;;;;;;;20.67;9.73;;;;;;;;;;5010808;28;20022;-83
2023/12/27 13:37:19;;;;;;;16.10;8.30;;;;;;;;;;4993092;28;20053;-84
2023/12/27 13:39:44;;;;;;;68.80;23.70;;;;;;;;;;4992832;28;20399;-83
2023/12/27 13:42:09;;;;;;;16.35;7.95;;;;;;;;;;5009043;28;20052;-83
2023/12/27 13:44:36;;;;;;;18.45;8.43;;;;;;;;;;5015397;28;20407;-84
2023/12/27 13:47:01;;;;;;;35.58;14.02;;;;;;;;;;4995225;28;20037;-84
2023/12/27 13:49:27;;;;;;;8.40;5.82;;;;;;;;;;5000462;28;20025;-83
2023/12/27 13:51:52;;;;;;;18.58;8.85;;;;;;;;;;4997802;28;20352;-84
2023/12/27 13:54:19;;;;;;;40.75;15.80;;;;;;;;;;5014475;28;20040;-83
2023/12/27 13:56:44;;;;;;;12.80;6.70;;;;;;;;;;5000633;28;20381;-83
2023/12/27 13:59:10;;;;;;;34.90;15.68;;;;;;;;;;4993278;28;20035;-83
2023/12/27 14:01:39;;;;;;;15.25;9.15;;;;;;;;;;4999372;28;20101;-83
2023/12/27 14:04:06;;;;;;;51.40;41.03;;;;;;;;;;4998112;28;20026;-83
2023/12/27 14:06:32;;;;;;;54.75;37.53;;;;;;;;;;4992165;28;20264;-83
2023/12/27 14:08:57;;;;;;;53.35;41.75;;;;;;;;;;5000407;28;20324;-82
2023/12/27 14:11:23;;;;;;;23.80;18.63;;;;;;;;;;5019421;28;20080;-84